Time;durP1;ratioP1;P1;durP2;ratioP2;P2;SDS_P1;SDS_P2;PMS_P1;PMS_P2;Temp;Humidity;BMP_temperature;BMP_pressure;BME280_temperature;BME280_humidity;BME280_pressure;Samples;Min_cycle;Max_cycle;Signal;HPM_P1;HPM_P2
2024/02/12 00:04:49;;;;;;;2.20;0.70;;;10.90;99.90;;;;;;10104214;28;20036;-66
2024/02/12 00:09:40;;;;;;;2.03;0.60;;;10.90;99.90;;;;;;10100701;28;20039;-66
2024/02/12 00:14:30;;;;;;;0.80;0.50;;;10.80;99.90;;;;;;10078976;28;20116;-66
2024/02/12 00:19:22;;;;;;;0.65;0.50;;;10.90;99.90;;;;;;10082006;28;20051;-66
2024/02/12 00:24:14;;;;;;;1.80;0.68;;;10.80;99.90;;;;;;10081940;28;20021;-68
2024/02/12 00:29:08;;;;;;;0.60;0.50;;;10.80;99.90;;;;;;10083468;28;20075;-66
2024/02/12 00:33:58;;;;;;;2.03;0.57;;;10.90;99.90;;;;;;10095713;28;20520;-67
2024/02/12 00:38:49;;;;;;;0.85;0.60;;;10.90;99.90;;;;;;10094902;28;20120;-67
2024/02/12 00:43:44;;;;;;;0.40;0.30;;;10.90;99.90;;;;;;10099607;28;20037;-66
2024/02/12 00:48:36;;;;;;;1.70;0.50;;;10.90;99.90;;;;;;10104028;28;20044;-66
2024/02/12 00:53:28;;;;;;;1.10;0.47;;;10.90;99.90;;;;;;10103159;28;20020;-66
2024/02/12 00:58:19;;;;;;;1.25;0.50;;;10.90;99.90;;;;;;10103447;28;20429;-65
2024/02/12 01:03:10;;;;;;;0.70;0.50;;;11.00;99.90;;;;;;10103157;28;20043;-68
2024/02/12 01:08:01;;;;;;;2.10;0.73;;;10.80;99.90;;;;;;10102678;28;20390;-67
2024/02/12 01:12:51;;;;;;;1.63;0.50;;;10.80;99.90;;;;;;10102340;28;20024;-66
2024/02/12 01:17:42;;;;;;;0.52;0.50;;;10.80;99.90;;;;;;10101385;28;20024;-66
2024/02/12 01:22:33;;;;;;;0.82;0.50;;;10.80;99.90;;;;;;10084262;28;20093;-66
2024/02/12 01:27:25;;;;;;;1.05;0.60;;;10.80;99.90;;;;;;10101367;28;20132;-67
2024/02/12 01:32:16;;;;;;;0.93;0.50;;;10.80;99.90;;;;;;10084282;28;20033;-66
2024/02/12 01:37:06;;;;;;;1.08;0.50;;;10.80;99.90;;;;;;10103114;28;20021;-66
2024/02/12 01:41:57;;;;;;;1.08;0.60;;;10.80;99.90;;;;;;10104518;28;20040;-66
2024/02/12 01:46:50;;;;;;;0.50;0.50;;;10.80;99.90;;;;;;10101027;28;20091;-66
2024/02/12 01:51:44;;;;;;;1.23;0.73;;;10.80;99.90;;;;;;10101174;28;20036;-66
2024/02/12 01:56:35;;;;;;;0.88;0.65;;;10.70;99.90;;;;;;10100643;28;20025;-67
2024/02/12 02:01:29;;;;;;;0.93;0.60;;;10.80;99.90;;;;;;10101209;28;20537;-66
2024/02/12 02:06:20;;;;;;;1.33;0.70;;;10.70;99.90;;;;;;10100144;28;20447;-66
2024/02/12 02:11:11;;;;;;;0.40;0.30;;;10.80;99.90;;;;;;10083173;28;20116;-66
2024/02/12 02:16:02;;;;;;;1.48;0.77;;;10.80;99.90;;;;;;10100022;28;20070;-66
2024/02/12 02:20:52;;;;;;;1.02;0.50;;;10.70;99.90;;;;;;10100107;28;20033;-66
2024/02/12 02:25:43;;;;;;;1.25;0.73;;;10.70;99.90;;;;;;10100664;28;20051;-65
2024/02/12 02:30:34;;;;;;;0.57;0.50;;;10.50;99.90;;;;;;10093139;28;20098;-66
2024/02/12 02:35:24;;;;;;;0.32;0.30;;;10.30;99.90;;;;;;10100897;28;20398;-66
2024/02/12 02:40:15;;;;;;;0.82;0.45;;;10.20;99.90;;;;;;10098745;28;20025;-66
2024/02/12 02:45:09;;;;;;;7.38;0.82;;;10.10;99.90;;;;;;10080968;28;20032;-66
2024/02/12 02:50:00;;;;;;;0.98;0.50;;;10.20;99.90;;;;;;10098767;28;20036;-66
2024/02/12 02:54:50;;;;;;;1.17;1.10;;;10.20;99.90;;;;;;10098964;28;20021;-65
2024/02/12 02:59:41;;;;;;;0.45;0.45;;;10.00;99.90;;;;;;10098297;28;20033;-67
2024/02/12 03:04:34;;;;;;;0.73;0.40;;;10.00;99.90;;;;;;10098312;28;20045;-67
2024/02/12 03:09:25;;;;;;;1.00;0.65;;;10.00;99.90;;;;;;10098045;28;20406;-66
2024/02/12 03:14:16;;;;;;;1.05;0.52;;;10.00;99.90;;;;;;10097896;28;20473;-66
2024/02/12 03:19:08;;;;;;;0.98;0.50;;;10.00;99.90;;;;;;10107774;28;20402;-66
2024/02/12 03:23:59;;;;;;;0.70;0.50;;;10.10;99.90;;;;;;10097365;28;20036;-66
2024/02/12 03:28:51;;;;;;;1.20;0.40;;;10.10;99.90;;;;;;10091871;28;20049;-66
2024/02/12 03:33:42;;;;;;;0.90;0.50;;;10.10;99.90;;;;;;10097785;28;20049;-65
2024/02/12 03:38:33;;;;;;;1.25;0.40;;;10.20;99.90;;;;;;10097462;28;20021;-66
2024/02/12 03:43:24;;;;;;;0.68;0.50;;;10.20;99.90;;;;;;10096992;28;20094;-66
2024/02/12 04:03:49;;;;;;;0.65;0.47;;;10.30;99.90;;;;;;10088299;28;20040;-66
2024/02/12 04:08:42;;;;;;;1.63;0.70;;;10.20;99.90;;;;;;10095642;28;20036;-66
2024/02/12 04:13:34;;;;;;;1.90;0.60;;;10.20;99.90;;;;;;10094633;28;20040;-66
2024/02/12 04:18:24;;;;;;;0.73;0.47;;;10.20;99.90;;;;;;10095733;28;20635;-66
2024/02/12 04:23:16;;;;;;;1.08;0.50;;;10.20;99.90;;;;;;10093358;28;20033;-67
2024/02/12 04:28:09;;;;;;;0.47;0.35;;;10.30;99.90;;;;;;10095763;28;20067;-67
2024/02/12 04:33:02;;;;;;;1.02;0.52;;;10.30;99.90;;;;;;10078286;28;20410;-67
2024/02/12 04:37:54;;;;;;;1.08;0.63;;;10.20;99.90;;;;;;10095389;28;20028;-67
2024/02/12 04:42:48;;;;;;;1.70;0.68;;;10.20;99.90;;;;;;10078584;28;20029;-67
2024/02/12 04:47:39;;;;;;;1.55;0.68;;;10.30;99.90;;;;;;10095612;28;20655;-65
2024/02/12 04:52:30;;;;;;;1.10;1.00;;;10.20;99.90;;;;;;10095698;28;20069;-66
2024/02/12 04:57:21;;;;;;;0.98;0.82;;;10.20;99.90;;;;;;10094928;28;20071;-66
2024/02/12 05:02:11;;;;;;;1.35;0.90;;;10.30;99.90;;;;;;10095732;28;20029;-66
2024/02/12 05:07:02;;;;;;;1.63;0.70;;;10.30;99.90;;;;;;10095561;28;20029;-66
2024/02/12 05:11:53;;;;;;;2.53;1.13;;;10.30;99.90;;;;;;10095375;28;20053;-66
2024/02/12 05:16:45;;;;;;;1.40;0.85;;;10.30;99.90;;;;;;10091884;28;20025;-66
2024/02/12 05:22:36;;;;;;;2.55;1.35;;;10.30;99.90;;;;;;10093244;28;20113;-66
2024/02/12 05:26:57;;;;;;;1.60;0.65;;;10.20;99.90;;;;;;10080769;28;20040;-66
2024/02/12 05:31:48;;;;;;;1.95;1.20;;;10.20;99.90;;;;;;10100510;28;20077;-66
2024/02/12 05:36:39;;;;;;;3.65;1.65;;;10.20;99.90;;;;;;10099305;28;20028;-66
2024/02/12 05:41:30;;;;;;;1.77;1.00;;;10.20;99.90;;;;;;10098779;28;20083;-66
2024/02/12 05:46:20;;;;;;;1.83;1.42;;;10.20;99.90;;;;;;10099604;28;20056;-65
2024/02/12 05:51:11;;;;;;;2.17;1.05;;;10.20;99.90;;;;;;10108869;28;20044;-68
2024/02/12 05:56:02;;;;;;;2.80;0.90;;;10.20;99.90;;;;;;10101927;28;20017;-66
2024/02/12 06:00:56;;;;;;;1.63;0.98;;;10.20;99.90;;;;;;10101070;28;20014;-66
2024/02/12 06:05:48;;;;;;;1.42;0.82;;;10.20;99.90;;;;;;10108841;28;20021;-67
2024/02/12 06:10:38;;;;;;;3.72;1.52;;;10.20;99.90;;;;;;10100570;28;20032;-67
2024/02/12 06:15:31;;;;;;;1.73;0.90;;;10.10;99.90;;;;;;10094325;28;20600;-66
2024/02/12 06:20:22;;;;;;;1.92;0.95;;;10.10;99.90;;;;;;10100305;28;20094;-67
2024/02/12 06:25:12;;;;;;;2.92;0.95;;;10.20;99.90;;;;;;10099981;28;20113;-67
2024/02/12 06:30:04;;;;;;;1.38;0.82;;;10.20;99.90;;;;;;10099429;28;20601;-66
2024/02/12 06:34:54;;;;;;;1.90;1.10;;;10.10;99.90;;;;;;10100534;28;20021;-66
2024/02/12 06:39:45;;;;;;;2.72;1.73;;;10.10;99.90;;;;;;10099438;28;20013;-66
2024/02/12 06:44:35;;;;;;;2.65;1.15;;;10.10;99.90;;;;;;10099034;28;20036;-66
2024/02/12 06:49:26;;;;;;;1.92;1.38;;;10.10;99.90;;;;;;10097681;28;20549;-66
2024/02/12 06:54:18;;;;;;;1.77;1.00;;;10.10;99.90;;;;;;10092655;28;20060;-67
2024/02/12 06:59:08;;;;;;;6.22;1.48;;;10.10;99.90;;;;;;10094628;28;20483;-66
2024/02/12 07:04:00;;;;;;;1.38;0.98;;;10.10;99.90;;;;;;10107925;28;20108;-67
2024/02/12 07:08:50;;;;;;;2.10;1.17;;;10.10;99.90;;;;;;10096912;28;20040;-66
2024/02/12 07:13:41;;;;;;;2.90;1.50;;;10.10;99.90;;;;;;10065867;28;20028;-67
2024/02/12 07:18:32;;;;;;;2.65;1.55;;;10.10;99.90;;;;;;10087132;28;20013;-66
2024/02/12 07:23:23;;;;;;;1.75;1.13;;;10.10;99.90;;;;;;10084741;28;20136;-66
2024/02/12 07:28:13;;;;;;;3.05;1.85;;;10.10;99.90;;;;;;10083614;28;20064;-69
2024/02/12 07:33:04;;;;;;;3.40;1.10;;;10.10;99.90;;;;;;10088610;28;20036;-67
2024/02/12 07:37:55;;;;;;;4.63;1.33;;;10.10;99.90;;;;;;10088615;28;20091;-66
2024/02/12 07:42:46;;;;;;;3.20;1.38;;;10.20;99.90;;;;;;10090628;28;20471;-66
2024/02/12 07:47:37;;;;;;;2.55;1.45;;;10.10;99.90;;;;;;10094917;28;20032;-66
2024/02/12 07:52:27;;;;;;;4.25;1.30;;;10.20;99.90;;;;;;10095456;28;20521;-65
2024/02/12 07:57:18;;;;;;;3.22;1.17;;;10.20;99.90;;;;;;10101330;28;20052;-66
2024/02/12 08:02:09;;;;;;;1.85;1.10;;;10.10;99.90;;;;;;10082806;28;20032;-66
2024/02/12 08:06:59;;;;;;;2.70;1.05;;;10.20;99.90;;;;;;10089385;28;20089;-68
2024/02/12 08:11:50;;;;;;;1.77;0.82;;;10.20;99.90;;;;;;10094255;28;20494;-67
2024/02/12 08:16:44;;;;;;;3.03;1.38;;;10.30;99.90;;;;;;10096458;28;20040;-68
2024/02/12 08:21:34;;;;;;;1.73;1.00;;;10.30;99.90;;;;;;10103867;28;20123;-68
2024/02/12 08:26:25;;;;;;;3.25;1.48;;;10.20;99.90;;;;;;10094431;28;20177;-68
2024/02/12 08:31:19;;;;;;;3.00;1.17;;;10.30;99.90;;;;;;10094129;28;20102;-69
2024/02/12 08:36:09;;;;;;;4.22;0.88;;;10.30;99.90;;;;;;10098714;28;20029;-68
2024/02/12 08:41:00;;;;;;;2.60;1.20;;;10.20;99.90;;;;;;10095221;28;20025;-68
2024/02/12 08:45:51;;;;;;;2.10;1.10;;;10.30;99.90;;;;;;10095323;28;20104;-68
2024/02/12 08:50:42;;;;;;;4.45;1.30;;;10.30;99.90;;;;;;10095292;28;20059;-69
2024/02/12 08:55:33;;;;;;;4.00;1.48;;;10.30;99.90;;;;;;10092468;28;20029;-68
2024/02/12 09:00:24;;;;;;;1.27;0.90;;;10.40;99.90;;;;;;10094884;28;20100;-69
2024/02/12 09:05:14;;;;;;;1.90;0.75;;;10.30;99.90;;;;;;10098322;28;20033;-68
2024/02/12 09:10:07;;;;;;;1.08;0.90;;;10.40;99.90;;;;;;10103092;28;20039;-70
2024/02/12 09:14:57;;;;;;;1.35;1.00;;;10.50;99.90;;;;;;10102787;28;20033;-69
2024/02/12 09:19:48;;;;;;;0.75;0.60;;;10.50;99.90;;;;;;10102500;28;20465;-67
2024/02/12 09:24:41;;;;;;;0.73;0.63;;;10.40;99.90;;;;;;10101971;28;20017;-67
2024/02/12 09:29:32;;;;;;;0.80;0.70;;;10.40;99.90;;;;;;10101165;28;20628;-68
2024/02/12 09:34:23;;;;;;;0.80;0.65;;;10.50;99.90;;;;;;10101571;28;20399;-68
2024/02/12 09:39:15;;;;;;;1.85;0.80;;;10.60;99.90;;;;;;10101093;28;20041;-68
2024/02/12 09:44:07;;;;;;;1.75;0.60;;;10.70;99.90;;;;;;10101899;28;20047;-65
2024/02/12 09:48:58;;;;;;;1.55;0.88;;;10.70;99.90;;;;;;10100030;28;20041;-66
2024/02/12 09:53:55;;;;;;;1.00;0.73;;;10.60;99.90;;;;;;10079548;28;20600;-67
2024/02/12 09:58:46;;;;;;;2.90;0.60;;;10.60;99.90;;;;;;10096556;28;20044;-67
2024/02/12 10:03:36;;;;;;;1.98;0.73;;;10.60;99.90;;;;;;10092115;28;20495;-67
2024/02/12 10:08:27;;;;;;;1.10;0.45;;;10.40;99.90;;;;;;10082600;28;20032;-68
2024/02/12 10:13:19;;;;;;;1.58;0.63;;;10.50;99.90;;;;;;10094839;28;20525;-67
2024/02/12 10:18:15;;;;;;;1.98;0.60;;;10.50;99.90;;;;;;10099623;28;20024;-68
2024/02/12 10:23:09;;;;;;;1.60;0.90;;;10.70;99.90;;;;;;10099972;28;20013;-66
2024/02/12 10:27:59;;;;;;;3.90;0.80;;;10.80;99.90;;;;;;10102444;28;20040;-67
2024/02/12 10:32:51;;;;;;;6.07;0.73;;;10.90;99.90;;;;;;10100313;28;20517;-67
2024/02/12 10:37:44;;;;;;;2.33;0.80;;;11.10;99.90;;;;;;10097956;28;21207;-67
2024/02/12 10:42:51;;;;;;;1.17;0.63;;;11.20;99.90;;;;;;10098820;28;20021;-67
2024/02/12 10:47:42;;;;;;;2.08;0.75;;;11.20;99.90;;;;;;10098592;28;20059;-66
2024/02/12 10:52:36;;;;;;;0.95;0.40;;;11.20;99.90;;;;;;10103497;28;20056;-67
2024/02/12 10:57:27;;;;;;;1.08;0.50;;;11.20;99.90;;;;;;10097989;28;20128;-66
2024/02/12 11:02:19;;;;;;;2.40;0.50;;;11.30;99.90;;;;;;10097983;28;20029;-67
2024/02/12 11:07:24;;;;;;;2.63;0.68;;;11.20;99.90;;;;;;10097674;28;20127;-67
2024/02/12 11:12:22;;;;;;;2.58;1.10;;;11.30;99.90;;;;;;10084382;28;20685;-67
2024/02/12 11:17:20;;;;;;;1.17;0.63;;;11.30;99.90;;;;;;10065596;28;20025;-67
2024/02/12 11:22:11;;;;;;;1.30;0.50;;;11.30;99.90;;;;;;10068085;28;20374;-68
2024/02/12 11:27:08;;;;;;;0.82;0.68;;;11.30;99.90;;;;;;10087133;28;20049;-66
2024/02/12 11:31:59;;;;;;;1.90;0.40;;;11.30;99.90;;;;;;10088038;28;20056;-65
2024/02/12 11:37:03;;;;;;;3.75;0.63;;;11.30;99.90;;;;;;10083119;28;20025;-67
2024/02/12 11:41:54;;;;;;;4.68;0.77;;;11.30;99.90;;;;;;10091288;28;20041;-66
2024/02/12 11:47:00;;;;;;;1.75;0.52;;;11.30;99.90;;;;;;10096234;28;20038;-67
2024/02/12 11:51:51;;;;;;;1.83;0.60;;;11.30;99.90;;;;;;10089368;28;20029;-67
2024/02/12 11:56:43;;;;;;;1.67;0.75;;;11.30;99.90;;;;;;10099747;28;20057;-67
2024/02/12 12:01:35;;;;;;;1.90;0.50;;;11.30;99.90;;;;;;10096827;28;20377;-66
2024/02/12 12:06:33;;;;;;;2.33;0.90;;;11.40;99.90;;;;;;10095652;28;20017;-66
2024/02/12 12:11:26;;;;;;;2.00;0.70;;;11.30;99.90;;;;;;10093862;28;20040;-67
2024/02/12 12:16:16;;;;;;;4.22;0.65;;;11.30;99.90;;;;;;10095479;28;20040;-66
2024/02/12 12:21:08;;;;;;;3.75;0.80;;;11.30;99.90;;;;;;10095538;28;20531;-67
2024/02/12 12:25:59;;;;;;;0.93;0.45;;;11.50;99.90;;;;;;10094405;28;20037;-66
2024/02/12 12:30:50;;;;;;;0.75;0.40;;;11.50;99.90;;;;;;10096015;28;20041;-66
2024/02/12 12:35:41;;;;;;;3.67;0.88;;;11.50;99.90;;;;;;10095927;28;20029;-67
2024/02/12 12:40:31;;;;;;;2.47;0.40;;;11.50;99.90;;;;;;10100542;28;20525;-66
2024/02/12 12:45:22;;;;;;;1.27;0.70;;;11.50;99.90;;;;;;10099893;28;20502;-67
2024/02/12 12:50:13;;;;;;;1.55;0.70;;;11.50;99.90;;;;;;10097252;28;20044;-66
2024/02/12 12:55:08;;;;;;;1.67;0.50;;;11.50;99.90;;;;;;10100210;28;20803;-66
2024/02/12 12:59:59;;;;;;;3.20;0.52;;;11.50;99.90;;;;;;10102940;28;20025;-67
2024/02/12 13:04:50;;;;;;;2.10;0.80;;;11.50;99.90;;;;;;10095990;28;20640;-66
2024/02/12 13:09:40;;;;;;;1.33;0.50;;;11.40;99.90;;;;;;10106274;28;20048;-66
2024/02/12 13:14:31;;;;;;;2.22;0.50;;;11.50;99.90;;;;;;10102601;28;20025;-67
2024/02/12 13:19:22;;;;;;;2.25;0.55;;;11.60;99.90;;;;;;10103150;28;20045;-66
2024/02/12 13:24:14;;;;;;;2.47;0.57;;;11.50;99.90;;;;;;10102098;28;20389;-67
2024/02/12 13:29:06;;;;;;;1.45;0.70;;;11.60;99.90;;;;;;10102760;28;20064;-66
2024/02/12 13:33:57;;;;;;;1.20;0.47;;;11.80;99.90;;;;;;10083395;28;20023;-66
2024/02/12 13:38:48;;;;;;;1.42;0.50;;;11.90;99.90;;;;;;10100249;28;20135;-66
2024/02/12 13:43:38;;;;;;;0.47;0.35;;;11.90;99.90;;;;;;10094703;28;20026;-65
2024/02/12 13:48:29;;;;;;;3.85;0.82;;;12.20;99.90;;;;;;10100971;28;20029;-67
2024/02/12 13:53:21;;;;;;;1.88;0.63;;;12.40;99.90;;;;;;10100170;28;20094;-68
2024/02/12 13:58:12;;;;;;;0.77;0.65;;;12.30;99.90;;;;;;10082693;28;20032;-69
2024/02/12 14:03:04;;;;;;;1.30;0.50;;;12.30;99.90;;;;;;10100595;28;20013;-69
2024/02/12 14:07:55;;;;;;;1.92;1.13;;;12.30;99.90;;;;;;10100146;28;20040;-67
2024/02/12 14:12:46;;;;;;;3.25;0.73;;;12.30;99.90;;;;;;10098598;28;20044;-68
2024/02/12 14:17:41;;;;;;;1.98;0.75;;;12.20;99.90;;;;;;10083887;28;20028;-68
2024/02/12 14:22:33;;;;;;;2.40;0.98;;;12.00;99.90;;;;;;10099309;28;20021;-69
2024/02/12 14:27:23;;;;;;;0.80;0.40;;;11.90;99.90;;;;;;10057914;28;20057;-65
2024/02/12 14:32:18;;;;;;;2.95;0.88;;;11.90;99.90;;;;;;10062739;28;20503;-66
2024/02/12 14:37:10;;;;;;;3.40;0.75;;;11.80;99.90;;;;;;10059539;28;20453;-66
2024/02/12 14:42:00;;;;;;;2.72;0.77;;;11.90;99.90;;;;;;10057907;28;20128;-66
2024/02/12 14:46:51;;;;;;;1.95;0.75;;;11.90;99.90;;;;;;10074103;28;20124;-66
2024/02/12 14:51:44;;;;;;;1.08;0.60;;;11.90;99.90;;;;;;10059146;28;20041;-65
2024/02/12 14:56:34;;;;;;;2.05;1.10;;;11.80;99.90;;;;;;10058836;28;20075;-65
2024/02/12 15:01:26;;;;;;;1.77;0.70;;;11.80;99.90;;;;;;10066103;28;20090;-64
2024/02/12 15:06:17;;;;;;;1.48;0.65;;;11.80;99.90;;;;;;10057922;28;20025;-66
2024/02/12 15:11:10;;;;;;;1.00;0.60;;;11.80;99.90;;;;;;10058576;28;20166;-67
2024/02/12 15:16:00;;;;;;;1.30;1.02;;;11.70;99.90;;;;;;10057853;28;20018;-65
2024/02/12 15:20:51;;;;;;;1.60;0.65;;;11.70;99.90;;;;;;10058489;28;20032;-66
2024/02/12 15:25:43;;;;;;;1.73;0.68;;;11.80;99.90;;;;;;10069253;28;20127;-64
2024/02/12 15:30:35;;;;;;;1.33;0.73;;;11.90;99.90;;;;;;10097684;28;20029;-66
2024/02/12 15:35:25;;;;;;;2.20;0.77;;;11.90;99.90;;;;;;10096504;28;20111;-65
2024/02/12 15:40:19;;;;;;;4.47;1.15;;;11.80;99.90;;;;;;10078670;28;20191;-68
2024/02/12 15:45:11;;;;;;;4.13;0.65;;;11.90;99.90;;;;;;10094992;28;20585;-65
2024/02/12 15:50:03;;;;;;;5.05;1.00;;;11.80;99.90;;;;;;10096696;28;20378;-66
2024/02/12 15:54:54;;;;;;;2.17;0.63;;;11.90;99.90;;;;;;10095667;28;20452;-66
2024/02/12 15:59:45;;;;;;;3.97;1.05;;;11.80;99.90;;;;;;10096947;28;20025;-64
2024/02/12 16:04:41;;;;;;;2.55;0.80;;;11.70;99.90;;;;;;10095935;28;20029;-67
2024/02/12 16:09:31;;;;;;;;;;;11.70;99.90;;;;;;10095792;28;20039;-65
2024/02/12 16:14:22;;;;;;;4.70;1.45;;;11.60;99.90;;;;;;10095008;28;19996;-66
2024/02/12 16:19:13;;;;;;;1.60;1.13;;;11.50;99.90;;;;;;10095952;28;20432;-66
2024/02/12 16:24:04;;;;;;;1.58;0.73;;;11.50;99.90;;;;;;10077104;28;20025;-66
2024/02/12 16:29:00;;;;;;;1.95;0.80;;;11.60;99.90;;;;;;10094665;28;20041;-66
2024/02/12 16:33:51;;;;;;;3.90;1.60;;;11.50;99.90;;;;;;10088920;28;20037;-65
2024/02/12 16:38:41;;;;;;;2.40;0.65;;;11.50;99.90;;;;;;10094630;28;20020;-68
2024/02/12 16:43:32;;;;;;;1.75;0.45;;;11.50;99.90;;;;;;10094973;28;20035;-66
2024/02/12 16:48:22;;;;;;;1.90;0.85;;;11.40;99.90;;;;;;10096841;28;20021;-67
2024/02/12 16:53:13;;;;;;;3.25;0.90;;;11.40;99.90;;;;;;10095029;28;20024;-66
2024/02/12 16:58:04;;;;;;;1.88;0.60;;;11.30;99.90;;;;;;10092491;28;20639;-67
2024/02/12 17:02:55;;;;;;;1.63;0.85;;;11.40;99.90;;;;;;10093968;28;20067;-70
2024/02/12 17:07:45;;;;;;;1.38;0.80;;;11.30;99.90;;;;;;10086363;28;20021;-65
2024/02/12 17:12:37;;;;;;;2.42;1.40;;;11.30;99.90;;;;;;10094436;28;20049;-67
2024/02/12 17:17:27;;;;;;;1.40;0.80;;;11.40;99.90;;;;;;10090522;28;20033;-67
2024/02/12 17:22:18;;;;;;;2.90;1.00;;;11.30;99.90;;;;;;10084179;28;20029;-68
2024/02/12 17:27:12;;;;;;;2.22;0.80;;;11.30;99.90;;;;;;10087454;28;20151;-66
2024/02/12 17:32:03;;;;;;;1.33;0.75;;;11.30;99.90;;;;;;10091166;28;20033;-67
2024/02/12 17:36:54;;;;;;;2.53;0.90;;;11.30;99.90;;;;;;10083133;28;20102;-65
2024/02/12 17:41:45;;;;;;;1.85;0.73;;;11.20;99.90;;;;;;10100250;28;20504;-66
2024/02/12 17:46:37;;;;;;;2.97;1.10;;;11.20;99.90;;;;;;10101347;28;20100;-67
2024/02/12 17:51:28;;;;;;;2.50;0.85;;;11.20;99.90;;;;;;10101202;28;20120;-66
2024/02/12 17:56:19;;;;;;;2.42;1.00;;;11.20;99.90;;;;;;10100981;28;20100;-66
2024/02/12 18:01:09;;;;;;;1.80;0.93;;;11.10;99.90;;;;;;10082878;28;20021;-67
2024/02/12 18:06:00;;;;;;;2.08;1.17;;;11.10;99.90;;;;;;10100212;28;20520;-67
2024/02/12 18:10:50;;;;;;;2.08;1.17;;;11.10;99.90;;;;;;10099277;28;20378;-66
2024/02/12 18:15:42;;;;;;;1.30;0.95;;;11.10;99.90;;;;;;10094963;28;20037;-67
2024/02/12 18:20:33;;;;;;;3.42;1.40;;;11.10;99.90;;;;;;10085737;28;20539;-66
2024/02/12 18:25:24;;;;;;;3.25;1.45;;;11.10;99.90;;;;;;10084114;28;20090;-68
2024/02/12 18:30:15;;;;;;;2.30;1.50;;;11.10;99.90;;;;;;10088422;28;20785;-65
2024/02/12 18:35:08;;;;;;;3.67;1.77;;;11.10;99.90;;;;;;10091166;28;20483;-66
2024/02/12 18:39:59;;;;;;;4.20;1.58;;;11.10;99.90;;;;;;10086951;28;20120;-66
2024/02/12 18:44:50;;;;;;;4.32;2.65;;;11.00;99.90;;;;;;10094823;28;20021;-66
2024/02/12 18:49:40;;;;;;;4.85;1.48;;;11.00;99.90;;;;;;10088719;28;20183;-66
2024/02/12 18:54:31;;;;;;;3.47;1.70;;;11.00;99.90;;;;;;10086844;28;20013;-67
2024/02/12 18:59:22;;;;;;;2.88;1.48;;;10.90;99.90;;;;;;10086315;28;20036;-67
2024/02/12 19:04:12;;;;;;;4.95;1.90;;;10.90;99.90;;;;;;10088366;28;20029;-66
2024/02/12 19:09:09;;;;;;;4.80;2.38;;;10.80;99.90;;;;;;10085148;28;20040;-66
2024/02/12 19:13:59;;;;;;;5.75;2.53;;;10.80;99.90;;;;;;10089043;28;20033;-67
2024/02/12 19:18:50;;;;;;;2.13;1.40;;;10.80;99.90;;;;;;10082677;28;20017;-67
2024/02/12 19:23:44;;;;;;;3.85;1.90;;;10.80;99.90;;;;;;10084357;28;20025;-66
2024/02/12 19:28:34;;;;;;;5.00;2.00;;;10.80;99.90;;;;;;10081741;28;20037;-67
2024/02/12 19:33:25;;;;;;;3.65;2.90;;;10.70;99.90;;;;;;10087462;28;20060;-66
2024/02/12 19:38:16;;;;;;;4.63;1.77;;;10.70;99.90;;;;;;10092849;28;20078;-67
2024/02/12 19:43:09;;;;;;;3.55;2.35;;;10.80;99.90;;;;;;10094849;28;20024;-67
2024/02/12 19:48:00;;;;;;;5.70;2.25;;;10.80;99.90;;;;;;10088330;28;20074;-66
2024/02/12 19:52:51;;;;;;;2.85;1.75;;;10.70;99.90;;;;;;10096181;28;20044;-68
2024/02/12 19:57:42;;;;;;;4.70;2.20;;;10.60;99.90;;;;;;10089945;28;20017;-66
2024/02/12 20:02:33;;;;;;;5.60;2.83;;;10.50;99.90;;;;;;10085574;28;20025;-68
2024/02/12 20:07:23;;;;;;;6.90;2.88;;;10.50;99.90;;;;;;10081395;28;20028;-68
2024/02/12 20:12:14;;;;;;;4.43;1.98;;;10.60;99.90;;;;;;10082597;28;20076;-66
2024/02/12 20:17:05;;;;;;;7.65;2.40;;;10.50;99.90;;;;;;10079213;28;20175;-67
2024/02/12 20:21:56;;;;;;;4.15;2.10;;;10.40;99.90;;;;;;10077768;28;20123;-67
2024/02/12 20:26:47;;;;;;;5.05;2.20;;;10.40;99.90;;;;;;10095044;28;20830;-67
2024/02/12 20:31:38;;;;;;;4.78;1.80;;;10.40;99.90;;;;;;10097877;28;20052;-68
2024/02/12 20:36:29;;;;;;;3.42;1.75;;;10.50;99.90;;;;;;10096257;28;20032;-67
2024/02/12 20:41:20;;;;;;;2.35;2.00;;;10.50;99.90;;;;;;10096200;28;20037;-67
2024/02/12 20:46:11;;;;;;;3.08;2.05;;;10.50;99.90;;;;;;10101282;28;20029;-68
2024/02/12 20:51:02;;;;;;;4.00;2.15;;;10.50;99.90;;;;;;10096680;28;20045;-67
2024/02/12 20:55:53;;;;;;;6.53;2.22;;;10.50;99.90;;;;;;10096288;28;20025;-67
2024/02/12 21:00:44;;;;;;;4.85;1.98;;;10.40;99.90;;;;;;10101471;28;20032;-66
2024/02/12 21:05:38;;;;;;;3.17;1.45;;;10.40;99.90;;;;;;10103629;28;20029;-67
2024/02/12 21:10:31;;;;;;;3.03;1.70;;;10.30;99.90;;;;;;10100256;28;20033;-67
2024/02/12 21:15:22;;;;;;;2.72;1.30;;;10.40;99.90;;;;;;10101283;28;20031;-66
2024/02/12 21:20:15;;;;;;;4.35;2.08;;;10.30;99.90;;;;;;10085443;28;20112;-67
2024/02/12 21:25:06;;;;;;;2.80;1.55;;;10.40;99.90;;;;;;10110299;28;20049;-67
2024/02/12 21:29:58;;;;;;;7.18;1.73;;;10.40;99.90;;;;;;10104517;28;20029;-67
2024/02/12 21:34:48;;;;;;;3.65;2.10;;;10.40;99.90;;;;;;10107590;28;20100;-67
2024/02/12 21:39:45;;;;;;;3.08;1.42;;;10.40;99.90;;;;;;10107094;28;20025;-67
2024/02/12 21:44:36;;;;;;;5.22;2.63;;;10.40;99.90;;;;;;10100908;28;20041;-67
2024/02/12 21:49:27;;;;;;;2.88;1.92;;;10.40;99.90;;;;;;10104065;28;20048;-67
2024/02/12 21:54:18;;;;;;;5.30;2.40;;;10.40;99.90;;;;;;10111255;28;20196;-67
2024/02/12 21:59:09;;;;;;;4.20;2.03;;;10.30;99.90;;;;;;10102670;28;20021;-67
2024/02/12 22:04:00;;;;;;;6.38;2.28;;;10.30;99.90;;;;;;10109283;28;20032;-67
2024/02/12 22:08:50;;;;;;;4.47;2.45;;;10.30;99.90;;;;;;10100471;28;20449;-67
2024/02/12 22:13:41;;;;;;;3.50;1.67;;;10.40;99.90;;;;;;10101570;28;20162;-66
2024/02/12 22:18:33;;;;;;;3.63;1.80;;;10.30;99.90;;;;;;10104681;28;20028;-67
2024/02/12 22:23:24;;;;;;;3.20;1.73;;;10.30;99.90;;;;;;10100978;28;20037;-66
2024/02/12 22:28:15;;;;;;;4.93;2.85;;;10.30;99.90;;;;;;10101386;28;20053;-68
2024/02/12 22:33:05;;;;;;;4.93;2.97;;;10.30;99.90;;;;;;10099121;28;20029;-66
2024/02/12 22:37:56;;;;;;;4.68;2.70;;;10.20;99.90;;;;;;10103292;28;20028;-67
2024/02/12 22:42:47;;;;;;;6.25;3.17;;;10.20;99.90;;;;;;10081234;28;20050;-67
2024/02/12 22:47:38;;;;;;;3.33;2.15;;;10.20;99.90;;;;;;10102693;28;20292;-67
2024/02/12 22:52:28;;;;;;;4.80;2.60;;;10.10;99.90;;;;;;10101587;28;20132;-68
2024/02/12 22:57:19;;;;;;;4.90;2.38;;;10.10;99.90;;;;;;10102691;28;20029;-67
2024/02/12 23:02:10;;;;;;;4.18;2.53;;;10.00;99.90;;;;;;10098240;28;20091;-67
2024/02/12 23:07:00;;;;;;;5.78;2.08;;;10.00;99.90;;;;;;10096376;28;20563;-66
2024/02/12 23:11:51;;;;;;;3.95;2.70;;;10.00;99.90;;;;;;10081647;28;20391;-66
2024/02/12 23:16:43;;;;;;;3.80;1.75;;;10.00;99.90;;;;;;10103548;28;20032;-68
2024/02/12 23:21:33;;;;;;;3.30;1.88;;;9.90;99.90;;;;;;10102572;28;20340;-66
2024/02/12 23:26:24;;;;;;;5.68;1.90;;;10.00;99.90;;;;;;10098219;28;20151;-67
2024/02/12 23:31:15;;;;;;;4.20;2.35;;;10.00;99.90;;;;;;10102157;28;20049;-67
2024/02/12 23:36:08;;;;;;;3.05;2.22;;;10.00;99.90;;;;;;10106119;28;20029;-67
2024/02/12 23:40:58;;;;;;;6.18;2.13;;;10.00;99.90;;;;;;10090538;28;20028;-66
2024/02/12 23:45:49;;;;;;;3.70;2.15;;;9.90;99.90;;;;;;10102833;28;20033;-67
2024/02/12 23:50:40;;;;;;;5.82;2.80;;;9.80;99.90;;;;;;10079513;28;20087;-68
2024/02/12 23:55:32;;;;;;;6.20;3.33;;;9.80;99.90;;;;;;10095820;28;20029;-67
